createdAt,value
2017-04-22T00:00:03.119Z,5.47
2017-04-22T00:00:07.547Z,5.47
2017-04-22T00:00:11.739Z,5.47
2017-04-22T00:00:16.276Z,5.47
2017-04-22T00:00:20.699Z,5.47
2017-04-22T00:00:25.121Z,5.46
2017-04-22T00:00:29.559Z,5.47
2017-04-22T00:00:33.869Z,5.47
2017-04-22T00:00:38.195Z,5.46
2017-04-22T00:00:42.610Z,5.46
2017-04-22T00:00:46.800Z,5.46
2017-04-22T00:00:51.226Z,5.46
2017-04-22T00:00:55.526Z,5.46
2017-04-22T00:00:59.833Z,5.46
2017-04-22T00:01:04.134Z,5.45
2017-04-22T00:01:08.451Z,5.46
2017-04-22T00:01:12.790Z,5.46
2017-04-22T00:01:17.121Z,5.45
2017-04-22T00:01:21.552Z,5.45
2017-04-22T00:01:26.008Z,5.44
2017-04-22T00:01:30.634Z,5.45
2017-04-22T00:01:34.941Z,5.44
2017-04-22T00:01:39.367Z,5.44
2017-04-22T00:01:43.671Z,5.44
2017-04-22T00:01:47.973Z,5.44
2017-04-22T00:01:52.279Z,5.43
2017-04-22T00:01:56.728Z,5.44
2017-04-22T00:02:01.057Z,5.44
2017-04-22T00:02:05.371Z,5.44
2017-04-22T00:02:09.680Z,5.43
2017-04-22T00:02:14.109Z,5.44
2017-04-22T00:02:18.577Z,5.43
2017-04-22T00:02:22.883Z,5.44
2017-04-22T00:02:27.305Z,5.43
2017-04-22T00:02:31.728Z,5.42
2017-04-22T00:02:36.152Z,5.44
2017-04-22T00:02:40.683Z,5.43
2017-04-22T00:02:45.006Z,5.43
2017-04-22T00:02:49.437Z,5.42
2017-04-22T00:02:53.751Z,5.43
2017-04-22T00:02:58.184Z,5.42
2017-04-22T00:03:02.609Z,5.41
2017-04-22T00:03:07.032Z,5.42
2017-04-22T00:03:11.229Z,5.41
2017-04-22T00:03:15.533Z,5.42
2017-04-22T00:03:19.952Z,5.42
2017-04-22T00:03:24.399Z,5.42
2017-04-22T00:03:28.830Z,5.42
2017-04-22T00:03:33.143Z,5.41
2017-04-22T00:03:37.558Z,5.42
2017-04-22T00:03:41.870Z,5.41
2017-04-22T00:03:46.201Z,5.41
2017-04-22T00:03:50.660Z,5.41
2017-04-22T00:03:55.087Z,5.4
2017-04-22T00:03:59.530Z,5.4
2017-04-22T00:04:04.082Z,5.4
2017-04-22T00:04:08.397Z,5.39
2017-04-22T00:04:12.618Z,5.4
2017-04-22T00:04:17.047Z,5.4
2017-04-22T00:04:21.351Z,5.4
2017-04-22T00:04:25.776Z,5.4
2017-04-22T00:04:30.202Z,5.4
2017-04-22T00:04:34.629Z,5.38
2017-04-22T00:04:39.054Z,5.38
2017-04-22T00:04:43.358Z,5.38
2017-04-22T00:04:47.672Z,5.38
2017-04-22T00:04:52.227Z,5.39
2017-04-22T00:04:56.853Z,5.38
2017-04-22T00:05:01.285Z,5.38
2017-04-22T00:05:05.588Z,5.38
2017-04-22T00:05:10.007Z,5.38
2017-04-22T00:05:14.081Z,5.38
2017-04-22T00:05:18.509Z,5.38
2017-04-22T00:05:22.812Z,5.38
2017-04-22T00:05:27.117Z,5.37
2017-04-22T00:05:31.543Z,5.37
2017-04-22T00:05:35.964Z,5.37
2017-04-22T00:05:40.278Z,5.37
2017-04-22T00:05:44.581Z,5.37
2017-04-22T00:05:48.889Z,5.36
2017-04-22T00:05:53.217Z,5.36
2017-04-22T00:05:57.636Z,5.35
2017-04-22T00:06:02.313Z,5.36
2017-04-22T00:06:06.534Z,5.36
2017-04-22T00:06:10.841Z,5.34
2017-04-22T00:06:15.145Z,5.36
2017-04-22T00:06:19.341Z,5.36
2017-04-22T00:06:23.767Z,5.35
2017-04-22T00:06:28.211Z,5.35
2017-04-22T00:06:32.633Z,5.36
2017-04-22T00:06:37.063Z,5.35
2017-04-22T00:06:41.366Z,5.35
2017-04-22T00:06:45.683Z,5.34
2017-04-22T00:06:50.110Z,5.35
2017-04-22T00:06:54.417Z,5.34
2017-04-22T00:06:58.605Z,5.33
2017-04-22T00:07:03.131Z,5.33
2017-04-22T00:07:07.563Z,5.34
2017-04-22T00:07:11.522Z,5.33
2017-04-22T00:07:16.010Z,5.33
2017-04-22T00:07:20.434Z,5.32
2017-04-22T00:07:24.860Z,5.33
2017-04-22T00:07:29.288Z,5.33
2017-04-22T00:07:33.712Z,5.32
2017-04-22T00:07:38.164Z,5.31
2017-04-22T00:07:42.471Z,5.31
2017-04-22T00:07:46.540Z,5.32
2017-04-22T00:07:50.740Z,5.31
2017-04-22T00:07:55.163Z,5.31
2017-04-22T00:07:59.599Z,5.31
2017-04-22T00:08:04.019Z,5.31
2017-04-22T00:08:08.326Z,5.3
2017-04-22T00:08:12.532Z,5.3
2017-04-22T00:08:16.929Z,5.3
2017-04-22T00:08:21.363Z,5.3
2017-04-22T00:08:25.696Z,5.3
2017-04-22T00:08:30.266Z,5.3
2017-04-22T00:08:34.575Z,5.3
2017-04-22T00:08:39.033Z,5.3
2017-04-22T00:08:43.338Z,5.3
2017-04-22T00:08:47.644Z,5.29
2017-04-22T00:08:51.711Z,5.3
2017-04-22T00:08:56.159Z,5.3
2017-04-22T00:09:00.590Z,5.29
2017-04-22T00:09:05.013Z,5.3
2017-04-22T00:09:09.321Z,5.3
2017-04-22T00:09:13.652Z,5.29
2017-04-22T00:09:17.978Z,5.29
2017-04-22T00:09:22.412Z,5.29
2017-04-22T00:09:26.767Z,5.29
2017-04-22T00:09:31.185Z,5.29
2017-04-22T00:09:35.609Z,5.29
2017-04-22T00:09:40.033Z,5.28
2017-04-22T00:09:44.465Z,5.28
2017-04-22T00:09:48.777Z,5.28
2017-04-22T00:09:53.199Z,5.28
2017-04-22T00:09:57.620Z,5.27
2017-04-22T00:10:02.057Z,5.27
2017-04-22T00:10:06.372Z,5.27
2017-04-22T00:10:10.563Z,5.28
2017-04-22T00:10:14.636Z,5.27
2017-04-22T00:10:18.834Z,5.27
2017-04-22T00:10:23.143Z,5.27
2017-04-22T00:10:27.570Z,5.26
2017-04-22T00:10:31.990Z,5.26
2017-04-22T00:10:36.398Z,5.26
2017-04-22T00:10:40.816Z,5.25
2017-04-22T00:10:45.239Z,5.26
2017-04-22T00:10:49.567Z,5.26
2017-04-22T00:10:53.870Z,5.26
2017-04-22T00:10:58.289Z,5.26
2017-04-22T00:11:02.598Z,5.25
2017-04-22T00:11:07.028Z,5.24
2017-04-22T00:11:11.230Z,5.25
2017-04-22T00:11:15.654Z,5.24
2017-04-22T00:11:20.073Z,5.25
2017-04-22T00:11:24.502Z,5.25
2017-04-22T00:11:28.941Z,5.24
2017-04-22T00:11:33.361Z,5.25
2017-04-22T00:11:37.783Z,5.25
2017-04-22T00:11:42.236Z,5.25
2017-04-22T00:11:46.653Z,5.24
2017-04-22T00:11:51.100Z,5.24
2017-04-22T00:11:55.527Z,5.24
2017-04-22T00:11:59.951Z,5.24
2017-04-22T00:12:04.624Z,5.24
2017-04-22T00:12:08.840Z,5.23
2017-04-22T00:12:13.033Z,5.23
2017-04-22T00:12:17.476Z,5.23
2017-04-22T00:12:21.899Z,5.22
2017-04-22T00:12:26.323Z,5.24
2017-04-22T00:12:30.749Z,5.23
2017-04-22T00:12:35.180Z,5.22
2017-04-22T00:12:39.623Z,5.23
2017-04-22T00:12:44.182Z,5.23
2017-04-22T00:12:48.375Z,5.23
2017-04-22T00:12:52.736Z,5.22
2017-04-22T00:12:57.168Z,5.22
2017-04-22T00:13:01.491Z,5.22
2017-04-22T00:13:05.937Z,5.22
2017-04-22T00:13:10.239Z,5.22
2017-04-22T00:13:14.433Z,5.22
2017-04-22T00:13:18.865Z,5.22
2017-04-22T00:13:23.237Z,5.22
2017-04-22T00:13:27.799Z,5.22
2017-04-22T00:13:32.112Z,5.22
2017-04-22T00:13:36.537Z,5.21
2017-04-22T00:13:40.969Z,5.21
2017-04-22T00:13:45.431Z,5.21
2017-04-22T00:13:49.622Z,5.22
2017-04-22T00:13:53.931Z,5.21
2017-04-22T00:13:58.407Z,5.21
2017-04-22T00:14:02.861Z,5.21
2017-04-22T00:14:07.190Z,5.2
2017-04-22T00:14:11.502Z,5.2
2017-04-22T00:14:15.693Z,5.2
2017-04-22T00:14:20.124Z,5.2
2017-04-22T00:14:24.704Z,5.2
2017-04-22T00:14:29.134Z,5.2
2017-04-22T00:14:33.566Z,5.19
2017-04-22T00:14:37.986Z,5.19
2017-04-22T00:14:42.175Z,5.19
2017-04-22T00:14:46.482Z,5.19
2017-04-22T00:14:50.800Z,5.19
2017-04-22T00:14:55.222Z,5.19
2017-04-22T00:14:59.655Z,5.19
2017-04-22T00:15:03.960Z,5.18
2017-04-22T00:15:08.272Z,5.18
2017-04-22T00:15:12.465Z,5.18
2017-04-22T00:15:16.891Z,5.18
2017-04-22T00:15:21.318Z,5.17
2017-04-22T00:15:25.747Z,5.18
2017-04-22T00:15:30.172Z,5.17
2017-04-22T00:15:34.482Z,5.18
2017-04-22T00:15:38.793Z,5.17
2017-04-22T00:15:43.214Z,5.17
2017-04-22T00:15:47.514Z,5.17
2017-04-22T00:15:51.820Z,5.17
2017-04-22T00:15:56.252Z,5.17
2017-04-22T00:16:00.709Z,5.17
2017-04-22T00:16:05.137Z,5.17
2017-04-22T00:16:09.320Z,5.17
2017-04-22T00:16:13.475Z,5.17
2017-04-22T00:16:17.927Z,5.17
2017-04-22T00:16:22.355Z,5.17
2017-04-22T00:16:26.773Z,5.16
2017-04-22T00:16:31.076Z,5.16
2017-04-22T00:16:35.497Z,5.16
2017-04-22T00:16:39.926Z,5.16
2017-04-22T00:16:44.347Z,5.16
2017-04-22T00:16:48.655Z,5.15
2017-04-22T00:16:53.072Z,5.16
2017-04-22T00:16:57.495Z,5.16
2017-04-22T00:17:01.932Z,5.15
2017-04-22T00:17:06.256Z,5.15
2017-04-22T00:17:10.566Z,5.15
2017-04-22T00:17:14.636Z,5.15
2017-04-22T00:17:18.954Z,5.15
2017-04-22T00:17:23.462Z,5.14
2017-04-22T00:17:27.897Z,5.14
2017-04-22T00:17:32.326Z,5.14
2017-04-22T00:17:36.746Z,5.14
2017-04-22T00:17:41.167Z,5.13
2017-04-22T00:17:45.609Z,5.13
2017-04-22T00:17:49.954Z,5.14
2017-04-22T00:17:54.381Z,5.13
2017-04-22T00:17:58.804Z,5.14
2017-04-22T00:18:03.377Z,5.13
2017-04-22T00:18:07.808Z,5.12
2017-04-22T00:18:12.123Z,5.13
2017-04-22T00:18:16.439Z,5.14
2017-04-22T00:18:20.883Z,5.13
2017-04-22T00:18:25.315Z,5.13
2017-04-22T00:18:29.772Z,5.12
2017-04-22T00:18:34.080Z,5.12
2017-04-22T00:18:38.727Z,5.12
2017-04-22T00:18:43.154Z,5.11
2017-04-22T00:18:47.580Z,5.13
2017-04-22T00:18:51.889Z,5.12
2017-04-22T00:18:56.212Z,5.11
2017-04-22T00:19:00.404Z,5.11
2017-04-22T00:19:04.708Z,5.11
2017-04-22T00:19:09.012Z,5.11
2017-04-22T00:19:12.971Z,5.11
2017-04-22T00:19:17.288Z,5.1
2017-04-22T00:19:21.720Z,5.11
2017-04-22T00:19:26.156Z,5.1
2017-04-22T00:19:30.478Z,5.1
2017-04-22T00:19:34.799Z,5.11
2017-04-22T00:19:39.229Z,5.1
2017-04-22T00:19:43.650Z,5.1
2017-04-22T00:19:48.068Z,5.09
2017-04-22T00:19:52.372Z,5.09
2017-04-22T00:19:56.812Z,5.1
2017-04-22T00:20:01.132Z,5.09
2017-04-22T00:20:05.431Z,5.08
2017-04-22T00:20:09.858Z,5.09
2017-04-22T00:20:14.278Z,5.09
2017-04-22T00:20:18.706Z,5.08
2017-04-22T00:20:23.126Z,5.08
2017-04-22T00:20:27.549Z,5.08
2017-04-22T00:20:31.854Z,5.08
2017-04-22T00:20:36.044Z,5.08
2017-04-22T00:20:40.474Z,5.08
2017-04-22T00:20:44.781Z,5.08
2017-04-22T00:20:49.237Z,5.08
2017-04-22T00:20:53.661Z,5.08
2017-04-22T00:20:58.099Z,5.07
2017-04-22T00:21:02.869Z,5.08
2017-04-22T00:21:07.291Z,5.08
2017-04-22T00:21:11.600Z,5.07
2017-04-22T00:21:15.789Z,5.08
2017-04-22T00:21:20.211Z,5.06
2017-04-22T00:21:24.670Z,5.07
2017-04-22T00:21:29.107Z,5.06
2017-04-22T00:21:33.525Z,5.07
2017-04-22T00:21:37.945Z,5.06
2017-04-22T00:21:42.370Z,5.06
2017-04-22T00:21:46.809Z,5.06
2017-04-22T00:21:51.247Z,5.06
2017-04-22T00:21:55.627Z,5.06
2017-04-22T00:22:00.078Z,5.06
2017-04-22T00:22:04.719Z,5.06
2017-04-22T00:22:09.048Z,5.06
2017-04-22T00:22:13.237Z,5.05
2017-04-22T00:22:17.541Z,5.05
2017-04-22T00:22:21.957Z,5.05
2017-04-22T00:22:26.145Z,5.04
2017-04-22T00:22:30.594Z,5.05
2017-04-22T00:22:34.898Z,5.05
2017-04-22T00:22:39.318Z,5.05
2017-04-22T00:22:43.760Z,5.04
2017-04-22T00:22:48.189Z,5.04
2017-04-22T00:22:52.500Z,5.03
2017-04-22T00:22:56.807Z,5.04
2017-04-22T00:23:01.227Z,5.04
2017-04-22T00:23:05.694Z,5.02
2017-04-22T00:23:10.208Z,5.04
2017-04-22T00:23:14.455Z,5.03
2017-04-22T00:23:18.755Z,5.03
2017-04-22T00:23:22.831Z,5.03
2017-04-22T00:23:27.259Z,5.03
2017-04-22T00:23:31.689Z,5.02
2017-04-22T00:23:36.026Z,5.02
2017-04-22T00:23:40.450Z,5.03
2017-04-22T00:23:44.881Z,5.02
2017-04-22T00:23:49.190Z,5.01
2017-04-22T00:23:53.495Z,5.02
2017-04-22T00:23:57.922Z,5.02
2017-04-22T00:24:02.340Z,5.01
2017-04-22T00:24:06.653Z,5.01
2017-04-22T00:24:10.955Z,5.01
2017-04-22T00:24:15.338Z,5.02
2017-04-22T00:24:19.854Z,5.01
2017-04-22T00:24:24.287Z,5.01
2017-04-22T00:24:28.710Z,5
2017-04-22T00:24:32.894Z,5
2017-04-22T00:24:37.206Z,5
2017-04-22T00:24:41.637Z,5
2017-04-22T00:24:46.062Z,5
2017-04-22T00:24:50.480Z,5
2017-04-22T00:24:54.670Z,4.99
2017-04-22T00:24:59.101Z,5
2017-04-22T00:25:03.529Z,4.99
2017-04-22T00:25:07.829Z,4.98
2017-04-22T00:25:12.330Z,4.98
2017-04-22T00:25:16.643Z,4.98
2017-04-22T00:25:21.085Z,4.99
2017-04-22T00:25:25.702Z,4.97
2017-04-22T00:25:30.273Z,4.97
2017-04-22T00:25:34.581Z,4.97
2017-04-22T00:25:39.014Z,4.97
2017-04-22T00:25:43.435Z,4.97
2017-04-22T00:25:47.744Z,4.97
2017-04-22T00:25:51.929Z,4.96
2017-04-22T00:25:56.241Z,4.97
2017-04-22T00:26:00.672Z,4.97
2017-04-22T00:26:05.137Z,4.97
2017-04-22T00:26:09.322Z,4.96
2017-04-22T00:26:13.627Z,4.96
2017-04-22T00:26:18.052Z,4.95
2017-04-22T00:26:22.496Z,4.95
2017-04-22T00:26:26.918Z,4.95
2017-04-22T00:26:31.343Z,4.96
2017-04-22T00:26:35.772Z,4.95
2017-04-22T00:26:39.962Z,4.95
2017-04-22T00:26:44.387Z,4.95
2017-04-22T00:26:48.806Z,4.95
2017-04-22T00:26:53.223Z,4.94
2017-04-22T00:26:57.528Z,4.95
2017-04-22T00:27:02.191Z,4.94
2017-04-22T00:27:06.616Z,4.94
2017-04-22T00:27:10.914Z,4.94
2017-04-22T00:27:15.334Z,4.93
2017-04-22T00:27:19.753Z,4.93
2017-04-22T00:27:24.191Z,4.94
2017-04-22T00:27:28.493Z,4.92
2017-04-22T00:27:32.919Z,4.93
2017-04-22T00:27:37.347Z,4.94
2017-04-22T00:27:41.867Z,4.92
2017-04-22T00:27:46.195Z,4.93
2017-04-22T00:27:50.626Z,4.92
2017-04-22T00:27:54.939Z,4.93
2017-04-22T00:27:59.250Z,4.93
2017-04-22T00:28:04.022Z,4.93
2017-04-22T00:28:08.354Z,4.93
2017-04-22T00:28:12.790Z,4.92
2017-04-22T00:28:17.087Z,4.92
2017-04-22T00:28:21.420Z,4.92
2017-04-22T00:28:25.728Z,4.92
2017-04-22T00:28:30.160Z,4.91
2017-04-22T00:28:34.596Z,4.92
2017-04-22T00:28:39.038Z,4.9
2017-04-22T00:28:43.481Z,4.92
2017-04-22T00:28:47.905Z,4.9
2017-04-22T00:28:52.403Z,4.91
2017-04-22T00:28:56.722Z,4.9
2017-04-22T00:29:01.149Z,4.91
2017-04-22T00:29:05.841Z,4.9
2017-04-22T00:29:10.146Z,4.91
2017-04-22T00:29:14.348Z,4.9
2017-04-22T00:29:18.662Z,4.9
2017-04-22T00:29:23.088Z,4.89
2017-04-22T00:29:27.278Z,4.9
2017-04-22T00:29:31.702Z,4.9
2017-04-22T00:29:36.137Z,4.89
2017-04-22T00:29:40.561Z,4.9
2017-04-22T00:29:44.867Z,4.9
2017-04-22T00:29:49.175Z,4.9
2017-04-22T00:29:53.893Z,4.89
2017-04-22T00:29:58.219Z,4.89
2017-04-22T00:30:02.642Z,4.9
2017-04-22T00:30:07.061Z,4.89
2017-04-22T00:30:11.253Z,4.89
2017-04-22T00:30:15.560Z,4.89
2017-04-22T00:30:19.868Z,4.9
2017-04-22T00:30:24.293Z,4.89
2017-04-22T00:30:28.713Z,4.89
2017-04-22T00:30:33.149Z,4.89
2017-04-22T00:30:37.587Z,4.89
2017-04-22T00:30:42.011Z,4.89
2017-04-22T00:30:46.433Z,4.89
2017-04-22T00:30:50.860Z,4.88
2017-04-22T00:30:55.176Z,4.88
2017-04-22T00:30:59.485Z,4.88
2017-04-22T00:31:04.052Z,4.89
2017-04-22T00:31:08.696Z,4.88
2017-04-22T00:31:13.000Z,4.88
2017-04-22T00:31:17.417Z,4.88
2017-04-22T00:31:21.849Z,4.88
2017-04-22T00:31:26.283Z,4.88
2017-04-22T00:31:30.704Z,4.88
2017-04-22T00:31:35.124Z,4.88
2017-04-22T00:31:39.429Z,4.89
2017-04-22T00:31:43.755Z,4.89
2017-04-22T00:31:48.177Z,4.88
2017-04-22T00:31:52.594Z,4.88
2017-04-22T00:31:56.904Z,4.88
2017-04-22T00:32:01.220Z,4.88
2017-04-22T00:32:05.521Z,4.88
2017-04-22T00:32:09.944Z,4.87
2017-04-22T00:32:14.515Z,4.87
2017-04-22T00:32:18.934Z,4.86
2017-04-22T00:32:23.355Z,4.87
2017-04-22T00:32:27.819Z,4.88
2017-04-22T00:32:32.235Z,4.88
2017-04-22T00:32:36.658Z,4.87
2017-04-22T00:32:41.083Z,4.87
2017-04-22T00:32:45.402Z,4.87
2017-04-22T00:32:49.830Z,4.87
2017-04-22T00:32:54.256Z,4.86
2017-04-22T00:32:58.565Z,4.86
2017-04-22T00:33:03.020Z,4.87
2017-04-22T00:33:07.454Z,4.86
2017-04-22T00:33:11.791Z,4.87
2017-04-22T00:33:15.995Z,4.87
2017-04-22T00:33:20.451Z,4.87
2017-04-22T00:33:24.949Z,4.88
2017-04-22T00:33:29.257Z,4.86
2017-04-22T00:33:33.692Z,4.87
2017-04-22T00:33:38.113Z,4.87
2017-04-22T00:33:42.538Z,4.87
2017-04-22T00:33:46.966Z,4.87
2017-04-22T00:33:51.389Z,4.87
2017-04-22T00:33:55.818Z,4.87
2017-04-22T00:34:00.289Z,4.87
2017-04-22T00:34:04.813Z,4.86
2017-04-22T00:34:09.124Z,4.87
2017-04-22T00:34:13.436Z,4.86
2017-04-22T00:34:17.864Z,4.86
2017-04-22T00:34:22.170Z,4.86
2017-04-22T00:34:26.625Z,4.87
2017-04-22T00:34:30.958Z,4.86
2017-04-22T00:34:35.414Z,4.86
2017-04-22T00:34:39.843Z,4.86
2017-04-22T00:34:44.264Z,4.85
2017-04-22T00:34:48.685Z,4.86
2017-04-22T00:34:52.994Z,4.87
2017-04-22T00:34:57.427Z,4.85
2017-04-22T00:35:01.765Z,4.86
2017-04-22T00:35:06.241Z,4.86
2017-04-22T00:35:10.658Z,4.85
2017-04-22T00:35:14.845Z,4.85
2017-04-22T00:35:19.276Z,4.85
2017-04-22T00:35:23.476Z,4.86
2017-04-22T00:35:27.900Z,4.84
2017-04-22T00:35:32.324Z,4.85
2017-04-22T00:35:36.909Z,4.85
2017-04-22T00:35:41.514Z,4.85
2017-04-22T00:35:45.824Z,4.84
2017-04-22T00:35:50.126Z,4.84
2017-04-22T00:35:54.430Z,4.84
2017-04-22T00:35:58.849Z,4.84
2017-04-22T00:36:03.276Z,4.84
2017-04-22T00:36:07.482Z,4.84
2017-04-22T00:36:11.787Z,4.84
2017-04-22T00:36:15.976Z,4.85
2017-04-22T00:36:20.178Z,4.83
2017-04-22T00:36:24.613Z,4.84
2017-04-22T00:36:29.037Z,4.84
2017-04-22T00:36:33.466Z,4.84
2017-04-22T00:36:37.915Z,4.83
2017-04-22T00:36:42.332Z,4.84
2017-04-22T00:36:46.891Z,4.82
2017-04-22T00:36:51.223Z,4.83
2017-04-22T00:36:55.646Z,4.84
2017-04-22T00:36:59.948Z,4.83
2017-04-22T00:37:04.635Z,4.83
2017-04-22T00:37:08.821Z,4.83
2017-04-22T00:37:13.011Z,4.83
2017-04-22T00:37:17.441Z,4.83
2017-04-22T00:37:21.863Z,4.83
2017-04-22T00:37:26.287Z,4.83
2017-04-22T00:37:30.601Z,4.82
2017-04-22T00:37:35.026Z,4.82
2017-04-22T00:37:39.339Z,4.83
2017-04-22T00:37:43.758Z,4.82
2017-04-22T00:37:48.071Z,4.82
2017-04-22T00:37:52.488Z,4.82
2017-04-22T00:37:56.961Z,4.81
2017-04-22T00:38:01.359Z,4.82
2017-04-22T00:38:05.544Z,4.82
2017-04-22T00:38:09.975Z,4.82
2017-04-22T00:38:14.405Z,4.81
2017-04-22T00:38:18.870Z,4.81
2017-04-22T00:38:23.187Z,4.82
2017-04-22T00:38:27.612Z,4.81
2017-04-22T00:38:32.032Z,4.81
2017-04-22T00:38:36.458Z,4.81
2017-04-22T00:38:40.898Z,4.8
2017-04-22T00:38:45.094Z,4.82
2017-04-22T00:38:49.418Z,4.82
2017-04-22T00:38:53.849Z,4.81
2017-04-22T00:38:58.289Z,4.81
2017-04-22T00:39:02.709Z,4.81
2017-04-22T00:39:07.012Z,4.8
2017-04-22T00:39:11.318Z,4.81
2017-04-22T00:39:15.510Z,4.81
2017-04-22T00:39:19.942Z,4.81
2017-04-22T00:39:24.371Z,4.8
2017-04-22T00:39:28.832Z,4.8
2017-04-22T00:39:33.252Z,4.8
2017-04-22T00:39:37.554Z,4.79
2017-04-22T00:39:41.984Z,4.8
2017-04-22T00:39:46.431Z,4.79
2017-04-22T00:39:50.859Z,4.8
2017-04-22T00:39:55.277Z,4.8
2017-04-22T00:39:59.706Z,4.8
2017-04-22T00:40:03.892Z,4.81
2017-04-22T00:40:08.716Z,4.81
2017-04-22T00:40:13.261Z,4.8
2017-04-22T00:40:17.682Z,4.8
2017-04-22T00:40:22.114Z,4.8
2017-04-22T00:40:26.423Z,4.8
2017-04-22T00:40:30.884Z,4.81
2017-04-22T00:40:35.318Z,4.8
2017-04-22T00:40:39.740Z,4.8
2017-04-22T00:40:44.174Z,4.8
2017-04-22T00:40:48.534Z,4.8
2017-04-22T00:40:52.966Z,4.8
2017-04-22T00:40:57.389Z,4.8
2017-04-22T00:41:01.688Z,4.79
2017-04-22T00:41:06.115Z,4.79
2017-04-22T00:41:10.435Z,4.8
2017-04-22T00:41:14.735Z,4.79
2017-04-22T00:41:19.459Z,4.8
2017-04-22T00:41:23.989Z,4.8
2017-04-22T00:41:28.411Z,4.79
2017-04-22T00:41:32.841Z,4.8
2017-04-22T00:41:37.146Z,4.79
2017-04-22T00:41:41.587Z,4.79
2017-04-22T00:41:46.009Z,4.79
2017-04-22T00:41:50.317Z,4.79
2017-04-22T00:41:54.743Z,4.79
2017-04-22T00:41:59.163Z,4.79
2017-04-22T00:42:03.470Z,4.79
2017-04-22T00:42:07.776Z,4.8
2017-04-22T00:42:11.853Z,4.8
2017-04-22T00:42:15.929Z,4.79
2017-04-22T00:42:20.345Z,4.79
2017-04-22T00:42:24.871Z,4.79
2017-04-22T00:42:29.666Z,4.79
2017-04-22T00:42:34.097Z,4.78
2017-04-22T00:42:38.405Z,4.78
2017-04-22T00:42:42.830Z,4.78
2017-04-22T00:42:47.272Z,4.78
2017-04-22T00:42:51.588Z,4.79
2017-04-22T00:42:56.054Z,4.78
2017-04-22T00:43:00.479Z,4.78
2017-04-22T00:43:05.029Z,4.78
2017-04-22T00:43:09.338Z,4.78
2017-04-22T00:43:13.418Z,4.77
2017-04-22T00:43:17.729Z,4.78
2017-04-22T00:43:22.055Z,4.78
2017-04-22T00:43:26.502Z,4.77
2017-04-22T00:43:30.925Z,4.78
2017-04-22T00:43:35.409Z,4.77
2017-04-22T00:43:39.871Z,4.77
2017-04-22T00:43:44.193Z,4.78
2017-04-22T00:43:48.500Z,4.78
2017-04-22T00:43:52.929Z,4.78
2017-04-22T00:43:57.356Z,4.77
2017-04-22T00:44:01.788Z,4.77
2017-04-22T00:44:06.370Z,4.76
2017-04-22T00:44:10.564Z,4.77
2017-04-22T00:44:14.868Z,4.77
2017-04-22T00:44:19.182Z,4.77
2017-04-22T00:44:23.626Z,4.76
2017-04-22T00:44:27.937Z,4.76
2017-04-22T00:44:32.358Z,4.77
2017-04-22T00:44:36.659Z,4.76
2017-04-22T00:44:41.248Z,4.76
2017-04-22T00:44:45.819Z,4.76
2017-04-22T00:44:50.123Z,4.76
2017-04-22T00:44:54.434Z,4.76
2017-04-22T00:44:58.880Z,4.76
2017-04-22T00:45:03.403Z,4.76
2017-04-22T00:45:07.834Z,4.75
2017-04-22T00:45:12.260Z,4.76
2017-04-22T00:45:16.450Z,4.76
2017-04-22T00:45:20.935Z,4.76
2017-04-22T00:45:25.357Z,4.76
2017-04-22T00:45:29.790Z,4.75
2017-04-22T00:45:34.209Z,4.75
2017-04-22T00:45:38.517Z,4.75
2017-04-22T00:45:42.589Z,4.76
2017-04-22T00:45:47.027Z,4.76
2017-04-22T00:45:51.363Z,4.75
2017-04-22T00:45:55.910Z,4.76
2017-04-22T00:46:00.349Z,4.74
2017-04-22T00:46:04.656Z,4.74
2017-04-22T00:46:08.956Z,4.76
2017-04-22T00:46:13.273Z,4.75
2017-04-22T00:46:17.696Z,4.75
2017-04-22T00:46:22.124Z,4.75
2017-04-22T00:46:26.548Z,4.75
2017-04-22T00:46:30.971Z,4.75
2017-04-22T00:46:35.295Z,4.75
2017-04-22T00:46:39.717Z,4.75
2017-04-22T00:46:43.908Z,4.76
2017-04-22T00:46:48.332Z,4.75
2017-04-22T00:46:52.762Z,4.75
2017-04-22T00:46:57.182Z,4.75
2017-04-22T00:47:01.602Z,4.75
2017-04-22T00:47:05.790Z,4.75
2017-04-22T00:47:10.109Z,4.74
2017-04-22T00:47:14.410Z,4.76
2017-04-22T00:47:18.830Z,4.75
2017-04-22T00:47:23.262Z,4.75
2017-04-22T00:47:27.572Z,4.75
2017-04-22T00:47:31.915Z,4.75
2017-04-22T00:47:36.347Z,4.75
2017-04-22T00:47:40.766Z,4.74
2017-04-22T00:47:45.190Z,4.76
2017-04-22T00:47:49.502Z,4.74
2017-04-22T00:47:53.969Z,4.75
2017-04-22T00:47:58.430Z,4.74
2017-04-22T00:48:02.860Z,4.75
2017-04-22T00:48:07.174Z,4.75
2017-04-22T00:48:11.574Z,4.74
2017-04-22T00:48:16.003Z,4.74
2017-04-22T00:48:20.310Z,4.74
2017-04-22T00:48:24.621Z,4.74
2017-04-22T00:48:29.042Z,4.74
2017-04-22T00:48:33.473Z,4.74
2017-04-22T00:48:37.904Z,4.74
2017-04-22T00:48:42.349Z,4.74
2017-04-22T00:48:46.658Z,4.75
2017-04-22T00:48:50.981Z,4.74
2017-04-22T00:48:55.420Z,4.74
2017-04-22T00:48:59.868Z,4.75
2017-04-22T00:49:04.302Z,4.74
2017-04-22T00:49:08.608Z,4.74
2017-04-22T00:49:13.039Z,4.75
2017-04-22T00:49:17.454Z,4.74
2017-04-22T00:49:21.765Z,4.75
2017-04-22T00:49:26.071Z,4.75
2017-04-22T00:49:30.375Z,4.74
2017-04-22T00:49:34.794Z,4.74
2017-04-22T00:49:39.225Z,4.74
2017-04-22T00:49:43.644Z,4.74
2017-04-22T00:49:48.065Z,4.74
2017-04-22T00:49:52.488Z,4.74
2017-04-22T00:49:56.801Z,4.74
2017-04-22T00:50:01.236Z,4.74
2017-04-22T00:50:05.539Z,4.74
2017-04-22T00:50:09.840Z,4.74
2017-04-22T00:50:14.029Z,4.74
2017-04-22T00:50:18.458Z,4.74
2017-04-22T00:50:23.022Z,4.74
2017-04-22T00:50:27.627Z,4.73
2017-04-22T00:50:32.050Z,4.75
2017-04-22T00:50:36.488Z,4.74
2017-04-22T00:50:40.916Z,4.74
2017-04-22T00:50:45.226Z,4.74
2017-04-22T00:50:49.527Z,4.73
2017-04-22T00:50:53.711Z,4.75
2017-04-22T00:50:58.141Z,4.74
2017-04-22T00:51:02.762Z,4.74
2017-04-22T00:51:07.185Z,4.74
2017-04-22T00:51:11.603Z,4.74
2017-04-22T00:51:15.791Z,4.74
2017-04-22T00:51:20.232Z,4.74
2017-04-22T00:51:24.654Z,4.73
2017-04-22T00:51:29.092Z,4.74
2017-04-22T00:51:33.414Z,4.74
2017-04-22T00:51:37.721Z,4.74
2017-04-22T00:51:42.144Z,4.74
2017-04-22T00:51:46.566Z,4.74
2017-04-22T00:51:50.758Z,4.73
2017-04-22T00:51:55.186Z,4.73
2017-04-22T00:51:59.620Z,4.74
2017-04-22T00:52:04.144Z,4.72
2017-04-22T00:52:08.446Z,4.73
2017-04-22T00:52:12.876Z,4.73
2017-04-22T00:52:17.296Z,4.73
2017-04-22T00:52:21.603Z,4.74
2017-04-22T00:52:26.042Z,4.74
2017-04-22T00:52:30.344Z,4.73
2017-04-22T00:52:34.654Z,4.74
2017-04-22T00:52:39.124Z,4.73
2017-04-22T00:52:43.652Z,4.74
2017-04-22T00:52:47.969Z,4.74
2017-04-22T00:52:52.287Z,4.73
2017-04-22T00:52:56.736Z,4.73
2017-04-22T00:53:01.169Z,4.73
2017-04-22T00:53:05.642Z,4.73
2017-04-22T00:53:09.950Z,4.74
2017-04-22T00:53:14.021Z,4.73
2017-04-22T00:53:18.450Z,4.72
2017-04-22T00:53:22.876Z,4.72
2017-04-22T00:53:27.074Z,4.74
2017-04-22T00:53:31.274Z,4.73
2017-04-22T00:53:35.702Z,4.73
2017-04-22T00:53:40.125Z,4.73
2017-04-22T00:53:44.439Z,4.73
2017-04-22T00:53:49.054Z,4.73
2017-04-22T00:53:53.364Z,4.73
2017-04-22T00:53:57.788Z,4.72
2017-04-22T00:54:02.257Z,4.72
2017-04-22T00:54:06.694Z,4.72
2017-04-22T00:54:11.005Z,4.72
2017-04-22T00:54:15.200Z,4.73
2017-04-22T00:54:19.509Z,4.73
2017-04-22T00:54:23.719Z,4.72
2017-04-22T00:54:28.150Z,4.72
2017-04-22T00:54:32.570Z,4.72
2017-04-22T00:54:36.990Z,4.73
2017-04-22T00:54:41.426Z,4.73
2017-04-22T00:54:45.743Z,4.74
2017-04-22T00:54:50.049Z,4.73
2017-04-22T00:54:54.707Z,4.73
2017-04-22T00:54:59.248Z,4.73
2017-04-22T00:55:03.594Z,4.73
2017-04-22T00:55:07.905Z,4.73
2017-04-22T00:55:12.208Z,4.73
2017-04-22T00:55:16.529Z,4.72
2017-04-22T00:55:20.965Z,4.73
2017-04-22T00:55:25.386Z,4.73
2017-04-22T00:55:29.803Z,4.73
2017-04-22T00:55:34.223Z,4.72
2017-04-22T00:55:38.648Z,4.73
2017-04-22T00:55:43.078Z,4.72
2017-04-22T00:55:47.386Z,4.72
2017-04-22T00:55:51.810Z,4.72
2017-04-22T00:55:56.242Z,4.71
2017-04-22T00:56:00.679Z,4.71
2017-04-22T00:56:05.208Z,4.7
2017-04-22T00:56:09.306Z,4.71
2017-04-22T00:56:13.729Z,4.71
2017-04-22T00:56:17.957Z,4.72
2017-04-22T00:56:22.376Z,4.71
2017-04-22T00:56:26.803Z,4.7
2017-04-22T00:56:31.222Z,4.71
2017-04-22T00:56:35.650Z,4.7
2017-04-22T00:56:40.101Z,4.71
2017-04-22T00:56:44.525Z,4.71
2017-04-22T00:56:48.954Z,4.72
2017-04-22T00:56:53.029Z,4.71
2017-04-22T00:56:57.453Z,4.72
2017-04-22T00:57:01.890Z,4.72
2017-04-22T00:57:06.315Z,4.71
2017-04-22T00:57:10.629Z,4.72
2017-04-22T00:57:14.858Z,4.72
2017-04-22T00:57:19.304Z,4.71
2017-04-22T00:57:23.490Z,4.71
2017-04-22T00:57:27.910Z,4.72
2017-04-22T00:57:32.224Z,4.72
2017-04-22T00:57:36.685Z,4.71
2017-04-22T00:57:41.124Z,4.72
2017-04-22T00:57:45.555Z,4.71
2017-04-22T00:57:49.750Z,4.71
2017-04-22T00:57:54.201Z,4.7
2017-04-22T00:57:58.638Z,4.7
2017-04-22T00:58:03.307Z,4.7
2017-04-22T00:58:07.631Z,4.71
2017-04-22T00:58:11.948Z,4.7
2017-04-22T00:58:16.264Z,4.72
2017-04-22T00:58:20.787Z,4.71
2017-04-22T00:58:25.223Z,4.7
2017-04-22T00:58:29.672Z,4.7
2017-04-22T00:58:33.979Z,4.71